sensor_id;sensor_type;location;lat;lon;timestamp;temperature;humidity
6333;DHT22;3199;49.102;8.856;2023-05-29T00:01:51;15.40;90.30
6333;DHT22;3199;49.102;8.856;2023-05-29T00:04:17;15.40;90.30
6333;DHT22;3199;49.102;8.856;2023-05-29T00:06:43;15.40;90.20
6333;DHT22;3199;49.102;8.856;2023-05-29T00:09:09;15.40;90.50
6333;DHT22;3199;49.102;8.856;2023-05-29T00:11:34;15.40;90.20
6333;DHT22;3199;49.102;8.856;2023-05-29T00:14:00;15.40;90.20
6333;DHT22;3199;49.102;8.856;2023-05-29T00:16:25;15.30;90.10
6333;DHT22;3199;49.102;8.856;2023-05-29T00:18:52;15.30;90.00
6333;DHT22;3199;49.102;8.856;2023-05-29T00:21:19;15.30;89.70
6333;DHT22;3199;49.102;8.856;2023-05-29T00:23:44;15.30;89.50
6333;DHT22;3199;49.102;8.856;2023-05-29T00:26:10;15.30;89.40
6333;DHT22;3199;49.102;8.856;2023-05-29T00:28:35;15.30;89.30
6333;DHT22;3199;49.102;8.856;2023-05-29T00:31:01;15.30;89.20
6333;DHT22;3199;49.102;8.856;2023-05-29T00:33:27;15.40;89.20
6333;DHT22;3199;49.102;8.856;2023-05-29T00:35:53;15.40;89.00
6333;DHT22;3199;49.102;8.856;2023-05-29T00:38:18;15.40;89.10
6333;DHT22;3199;49.102;8.856;2023-05-29T00:40:44;15.30;89.10
6333;DHT22;3199;49.102;8.856;2023-05-29T00:43:09;15.30;89.10
6333;DHT22;3199;49.102;8.856;2023-05-29T00:45:35;15.30;89.80
6333;DHT22;3199;49.102;8.856;2023-05-29T00:48:03;15.30;89.00
6333;DHT22;3199;49.102;8.856;2023-05-29T00:50:29;15.30;89.00
6333;DHT22;3199;49.102;8.856;2023-05-29T00:52:55;15.30;89.00
6333;DHT22;3199;49.102;8.856;2023-05-29T00:55:21;15.30;89.70
6333;DHT22;3199;49.102;8.856;2023-05-29T00:57:47;15.30;89.00
6333;DHT22;3199;49.102;8.856;2023-05-29T01:00:14;15.20;88.90
6333;DHT22;3199;49.102;8.856;2023-05-29T01:02:41;15.20;89.10
6333;DHT22;3199;49.102;8.856;2023-05-29T01:05:10;15.20;89.10
6333;DHT22;3199;49.102;8.856;2023-05-29T01:07:37;15.20;89.00
6333;DHT22;3199;49.102;8.856;2023-05-29T01:10:03;15.20;88.90
6333;DHT22;3199;49.102;8.856;2023-05-29T01:12:44;15.20;88.90
6333;DHT22;3199;49.102;8.856;2023-05-29T01:20:28;15.20;89.00
6333;DHT22;3199;49.102;8.856;2023-05-29T01:28:49;15.10;88.60
6333;DHT22;3199;49.102;8.856;2023-05-29T01:31:19;15.10;88.60
6333;DHT22;3199;49.102;8.856;2023-05-29T01:33:52;15.10;88.40
6333;DHT22;3199;49.102;8.856;2023-05-29T01:36:18;15.10;88.40
6333;DHT22;3199;49.102;8.856;2023-05-29T01:38:43;15.10;88.30
6333;DHT22;3199;49.102;8.856;2023-05-29T01:41:09;15.10;88.40
6333;DHT22;3199;49.102;8.856;2023-05-29T01:43:35;15.00;88.30
6333;DHT22;3199;49.102;8.856;2023-05-29T01:46:01;15.00;88.30
6333;DHT22;3199;49.102;8.856;2023-05-29T01:48:27;15.00;88.30
6333;DHT22;3199;49.102;8.856;2023-05-29T01:50:54;15.00;88.30
6333;DHT22;3199;49.102;8.856;2023-05-29T01:53:20;15.00;88.40
6333;DHT22;3199;49.102;8.856;2023-05-29T01:55:48;14.90;88.40
6333;DHT22;3199;49.102;8.856;2023-05-29T01:58:13;14.90;88.40
6333;DHT22;3199;49.102;8.856;2023-05-29T02:00:40;14.90;88.50
6333;DHT22;3199;49.102;8.856;2023-05-29T02:03:05;14.90;88.50
6333;DHT22;3199;49.102;8.856;2023-05-29T02:05:31;14.90;88.80
6333;DHT22;3199;49.102;8.856;2023-05-29T02:07:56;14.80;88.90
6333;DHT22;3199;49.102;8.856;2023-05-29T02:10:22;14.80;88.70
6333;DHT22;3199;49.102;8.856;2023-05-29T02:12:47;14.80;88.60
6333;DHT22;3199;49.102;8.856;2023-05-29T02:15:13;14.80;88.70
6333;DHT22;3199;49.102;8.856;2023-05-29T02:17:38;14.80;88.50
6333;DHT22;3199;49.102;8.856;2023-05-29T02:20:04;14.80;88.30
6333;DHT22;3199;49.102;8.856;2023-05-29T02:22:30;14.80;88.20
6333;DHT22;3199;49.102;8.856;2023-05-29T02:24:56;14.80;88.30
6333;DHT22;3199;49.102;8.856;2023-05-29T02:27:21;14.80;88.30
6333;DHT22;3199;49.102;8.856;2023-05-29T02:29:47;14.70;88.30
6333;DHT22;3199;49.102;8.856;2023-05-29T02:32:12;14.70;88.50
6333;DHT22;3199;49.102;8.856;2023-05-29T02:34:38;14.70;88.50
6333;DHT22;3199;49.102;8.856;2023-05-29T02:37:03;14.70;88.60
6333;DHT22;3199;49.102;8.856;2023-05-29T02:39:29;14.70;88.60
6333;DHT22;3199;49.102;8.856;2023-05-29T02:41:54;14.70;89.00
6333;DHT22;3199;49.102;8.856;2023-05-29T02:44:20;14.70;88.70
6333;DHT22;3199;49.102;8.856;2023-05-29T02:46:46;14.70;89.20
6333;DHT22;3199;49.102;8.856;2023-05-29T02:49:11;14.70;89.30
6333;DHT22;3199;49.102;8.856;2023-05-29T02:51:37;14.60;89.40
6333;DHT22;3199;49.102;8.856;2023-05-29T02:54:02;14.60;90.00
6333;DHT22;3199;49.102;8.856;2023-05-29T02:56:28;14.60;90.10
6333;DHT22;3199;49.102;8.856;2023-05-29T02:58:54;14.50;90.10
6333;DHT22;3199;49.102;8.856;2023-05-29T03:01:19;14.50;90.10
6333;DHT22;3199;49.102;8.856;2023-05-29T03:03:45;14.40;90.10
6333;DHT22;3199;49.102;8.856;2023-05-29T03:06:11;14.40;90.40
6333;DHT22;3199;49.102;8.856;2023-05-29T03:08:38;14.30;90.40
6333;DHT22;3199;49.102;8.856;2023-05-29T03:11:09;14.30;90.60
6333;DHT22;3199;49.102;8.856;2023-05-29T03:13:38;14.20;90.70
6333;DHT22;3199;49.102;8.856;2023-05-29T03:16:04;14.20;90.90
6333;DHT22;3199;49.102;8.856;2023-05-29T03:18:29;14.10;91.00
6333;DHT22;3199;49.102;8.856;2023-05-29T03:20:55;14.10;91.20
6333;DHT22;3199;49.102;8.856;2023-05-29T03:23:21;14.00;91.40
6333;DHT22;3199;49.102;8.856;2023-05-29T03:25:46;14.00;91.80
6333;DHT22;3199;49.102;8.856;2023-05-29T03:28:12;14.00;91.80
6333;DHT22;3199;49.102;8.856;2023-05-29T03:30:37;13.90;92.10
6333;DHT22;3199;49.102;8.856;2023-05-29T03:33:03;13.90;92.10
6333;DHT22;3199;49.102;8.856;2023-05-29T03:35:29;13.90;92.20
6333;DHT22;3199;49.102;8.856;2023-05-29T03:37:55;13.90;92.40
6333;DHT22;3199;49.102;8.856;2023-05-29T03:40:21;13.90;92.50
6333;DHT22;3199;49.102;8.856;2023-05-29T03:42:46;13.90;92.80
6333;DHT22;3199;49.102;8.856;2023-05-29T03:45:12;13.90;92.80
6333;DHT22;3199;49.102;8.856;2023-05-29T03:47:37;13.80;93.00
6333;DHT22;3199;49.102;8.856;2023-05-29T03:50:03;13.80;93.20
6333;DHT22;3199;49.102;8.856;2023-05-29T03:52:28;13.80;93.20
6333;DHT22;3199;49.102;8.856;2023-05-29T03:54:54;13.80;93.30
6333;DHT22;3199;49.102;8.856;2023-05-29T03:57:20;13.90;93.60
6333;DHT22;3199;49.102;8.856;2023-05-29T03:59:45;13.90;93.90
6333;DHT22;3199;49.102;8.856;2023-05-29T04:02:11;13.90;94.20
6333;DHT22;3199;49.102;8.856;2023-05-29T04:04:36;13.90;94.30
6333;DHT22;3199;49.102;8.856;2023-05-29T04:07:02;13.90;94.40
6333;DHT22;3199;49.102;8.856;2023-05-29T04:09:28;13.90;94.50
6333;DHT22;3199;49.102;8.856;2023-05-29T04:11:54;13.90;94.60
6333;DHT22;3199;49.102;8.856;2023-05-29T04:14:20;13.90;94.60
6333;DHT22;3199;49.102;8.856;2023-05-29T04:16:45;13.90;94.80
6333;DHT22;3199;49.102;8.856;2023-05-29T04:19:11;13.90;94.80
6333;DHT22;3199;49.102;8.856;2023-05-29T04:21:36;14.00;94.90
6333;DHT22;3199;49.102;8.856;2023-05-29T04:24:02;14.00;95.00
6333;DHT22;3199;49.102;8.856;2023-05-29T04:26:28;14.10;95.10
6333;DHT22;3199;49.102;8.856;2023-05-29T04:28:53;14.20;95.20
6333;DHT22;3199;49.102;8.856;2023-05-29T04:31:23;14.30;95.20
6333;DHT22;3199;49.102;8.856;2023-05-29T04:33:53;14.50;95.30
6333;DHT22;3199;49.102;8.856;2023-05-29T04:36:26;14.70;94.60
6333;DHT22;3199;49.102;8.856;2023-05-29T04:38:53;14.90;94.30
6333;DHT22;3199;49.102;8.856;2023-05-29T04:41:19;15.10;93.90
6333;DHT22;3199;49.102;8.856;2023-05-29T04:43:49;15.30;93.60
6333;DHT22;3199;49.102;8.856;2023-05-29T04:46:15;15.60;93.40
6333;DHT22;3199;49.102;8.856;2023-05-29T04:48:40;16.00;93.00
6333;DHT22;3199;49.102;8.856;2023-05-29T04:51:09;16.40;92.30
6333;DHT22;3199;49.102;8.856;2023-05-29T04:53:38;16.80;91.30
6333;DHT22;3199;49.102;8.856;2023-05-29T04:56:04;17.10;90.70
6333;DHT22;3199;49.102;8.856;2023-05-29T04:58:29;17.40;90.10
6333;DHT22;3199;49.102;8.856;2023-05-29T05:00:55;17.70;88.70
6333;DHT22;3199;49.102;8.856;2023-05-29T05:03:23;18.10;87.50
6333;DHT22;3199;49.102;8.856;2023-05-29T05:05:50;18.40;86.20
6333;DHT22;3199;49.102;8.856;2023-05-29T05:08:17;18.70;84.40
6333;DHT22;3199;49.102;8.856;2023-05-29T05:10:42;19.00;83.60
6333;DHT22;3199;49.102;8.856;2023-05-29T05:13:08;19.30;82.20
6333;DHT22;3199;49.102;8.856;2023-05-29T05:15:34;19.50;81.30
6333;DHT22;3199;49.102;8.856;2023-05-29T05:17:59;19.90;79.50
6333;DHT22;3199;49.102;8.856;2023-05-29T05:20:25;20.20;78.90
6333;DHT22;3199;49.102;8.856;2023-05-29T05:22:50;20.60;76.60
6333;DHT22;3199;49.102;8.856;2023-05-29T05:25:17;20.90;74.30
6333;DHT22;3199;49.102;8.856;2023-05-29T05:27:42;21.30;73.30
6333;DHT22;3199;49.102;8.856;2023-05-29T05:30:08;21.70;72.20
6333;DHT22;3199;49.102;8.856;2023-05-29T05:32:34;22.00;70.40
6333;DHT22;3199;49.102;8.856;2023-05-29T05:34:59;22.30;69.50
6333;DHT22;3199;49.102;8.856;2023-05-29T05:37:25;22.60;69.10
6333;DHT22;3199;49.102;8.856;2023-05-29T05:39:51;22.90;67.40
6333;DHT22;3199;49.102;8.856;2023-05-29T05:42:19;23.10;66.70
6333;DHT22;3199;49.102;8.856;2023-05-29T05:44:44;23.40;66.20
6333;DHT22;3199;49.102;8.856;2023-05-29T05:47:10;23.80;65.20
6333;DHT22;3199;49.102;8.856;2023-05-29T05:49:36;24.20;63.60
6333;DHT22;3199;49.102;8.856;2023-05-29T05:52:01;24.50;61.50
6333;DHT22;3199;49.102;8.856;2023-05-29T05:54:27;24.60;60.60
6333;DHT22;3199;49.102;8.856;2023-05-29T05:56:52;24.80;59.70
6333;DHT22;3199;49.102;8.856;2023-05-29T05:59:18;25.00;59.50
6333;DHT22;3199;49.102;8.856;2023-05-29T06:01:43;25.20;58.40
6333;DHT22;3199;49.102;8.856;2023-05-29T06:04:09;25.30;57.50
6333;DHT22;3199;49.102;8.856;2023-05-29T06:06:34;25.10;57.30
6333;DHT22;3199;49.102;8.856;2023-05-29T06:09:00;25.20;57.40
6333;DHT22;3199;49.102;8.856;2023-05-29T06:11:25;25.40;57.20
6333;DHT22;3199;49.102;8.856;2023-05-29T06:13:51;25.60;56.70
6333;DHT22;3199;49.102;8.856;2023-05-29T06:16:18;25.80;56.80
6333;DHT22;3199;49.102;8.856;2023-05-29T06:18:43;26.20;56.50
6333;DHT22;3199;49.102;8.856;2023-05-29T06:21:12;26.50;55.40
6333;DHT22;3199;49.102;8.856;2023-05-29T06:23:37;26.60;55.00
6333;DHT22;3199;49.102;8.856;2023-05-29T06:26:04;26.80;54.30
6333;DHT22;3199;49.102;8.856;2023-05-29T06:28:29;27.10;53.50
6333;DHT22;3199;49.102;8.856;2023-05-29T06:30:55;27.10;53.30
6333;DHT22;3199;49.102;8.856;2023-05-29T06:33:21;27.00;53.30
6333;DHT22;3199;49.102;8.856;2023-05-29T06:35:47;27.20;53.40
6333;DHT22;3199;49.102;8.856;2023-05-29T06:38:13;27.40;52.30
6333;DHT22;3199;49.102;8.856;2023-05-29T06:40:39;27.60;52.60
6333;DHT22;3199;49.102;8.856;2023-05-29T06:43:05;28.00;52.40
6333;DHT22;3199;49.102;8.856;2023-05-29T06:45:31;28.40;52.20
6333;DHT22;3199;49.102;8.856;2023-05-29T06:47:56;28.80;50.80
6333;DHT22;3199;49.102;8.856;2023-05-29T06:50:22;29.10;49.80
6333;DHT22;3199;49.102;8.856;2023-05-29T06:52:47;29.20;48.70
6333;DHT22;3199;49.102;8.856;2023-05-29T06:55:13;29.20;48.40
6333;DHT22;3199;49.102;8.856;2023-05-29T06:57:38;29.20;48.00
6333;DHT22;3199;49.102;8.856;2023-05-29T07:00:05;29.20;48.40
6333;DHT22;3199;49.102;8.856;2023-05-29T07:02:31;29.40;48.80
6333;DHT22;3199;49.102;8.856;2023-05-29T07:04:57;29.80;48.00
6333;DHT22;3199;49.102;8.856;2023-05-29T07:07:23;30.10;47.00
6333;DHT22;3199;49.102;8.856;2023-05-29T07:09:48;29.70;46.40
6333;DHT22;3199;49.102;8.856;2023-05-29T07:12:14;29.70;46.60
6333;DHT22;3199;49.102;8.856;2023-05-29T07:14:39;29.70;46.30
6333;DHT22;3199;49.102;8.856;2023-05-29T07:17:05;29.70;46.50
6333;DHT22;3199;49.102;8.856;2023-05-29T07:19:31;29.90;47.00
6333;DHT22;3199;49.102;8.856;2023-05-29T07:21:59;30.10;46.80
6333;DHT22;3199;49.102;8.856;2023-05-29T07:24:24;30.40;46.90
6333;DHT22;3199;49.102;8.856;2023-05-29T07:26:50;30.70;46.60
6333;DHT22;3199;49.102;8.856;2023-05-29T07:29:16;31.00;45.90
6333;DHT22;3199;49.102;8.856;2023-05-29T07:31:43;31.00;45.70
6333;DHT22;3199;49.102;8.856;2023-05-29T07:34:09;31.20;46.10
6333;DHT22;3199;49.102;8.856;2023-05-29T07:36:35;31.30;45.60
6333;DHT22;3199;49.102;8.856;2023-05-29T07:39:01;30.90;43.80
6333;DHT22;3199;49.102;8.856;2023-05-29T07:41:27;30.80;44.80
6333;DHT22;3199;49.102;8.856;2023-05-29T07:43:53;30.70;44.90
6333;DHT22;3199;49.102;8.856;2023-05-29T07:46:20;30.70;46.40
6333;DHT22;3199;49.102;8.856;2023-05-29T07:48:46;30.80;45.00
6333;DHT22;3199;49.102;8.856;2023-05-29T07:51:12;30.90;44.40
6333;DHT22;3199;49.102;8.856;2023-05-29T07:53:38;30.80;44.00
6333;DHT22;3199;49.102;8.856;2023-05-29T07:56:04;30.80;44.80
6333;DHT22;3199;49.102;8.856;2023-05-29T07:58:29;30.80;44.80
6333;DHT22;3199;49.102;8.856;2023-05-29T08:00:55;31.10;44.90
6333;DHT22;3199;49.102;8.856;2023-05-29T08:03:20;31.20;44.90
6333;DHT22;3199;49.102;8.856;2023-05-29T08:05:46;31.20;43.70
6333;DHT22;3199;49.102;8.856;2023-05-29T08:08:12;31.30;44.60
6333;DHT22;3199;49.102;8.856;2023-05-29T08:10:38;31.40;43.40
6333;DHT22;3199;49.102;8.856;2023-05-29T08:13:04;31.00;43.10
6333;DHT22;3199;49.102;8.856;2023-05-29T08:15:29;30.90;45.10
6333;DHT22;3199;49.102;8.856;2023-05-29T08:17:56;30.80;43.90
6333;DHT22;3199;49.102;8.856;2023-05-29T08:20:22;30.70;43.90
6333;DHT22;3199;49.102;8.856;2023-05-29T08:22:47;30.50;44.80
6333;DHT22;3199;49.102;8.856;2023-05-29T08:25:13;30.60;44.30
6333;DHT22;3199;49.102;8.856;2023-05-29T08:27:39;30.70;44.70
6333;DHT22;3199;49.102;8.856;2023-05-29T08:30:05;30.60;44.70
6333;DHT22;3199;49.102;8.856;2023-05-29T08:32:31;30.70;45.70
6333;DHT22;3199;49.102;8.856;2023-05-29T08:34:56;30.80;44.80
6333;DHT22;3199;49.102;8.856;2023-05-29T08:37:22;30.80;44.60
6333;DHT22;3199;49.102;8.856;2023-05-29T08:39:48;30.90;46.00
6333;DHT22;3199;49.102;8.856;2023-05-29T08:42:18;31.10;45.20
6333;DHT22;3199;49.102;8.856;2023-05-29T08:44:47;30.90;44.00
6333;DHT22;3199;49.102;8.856;2023-05-29T08:47:14;30.60;45.30
6333;DHT22;3199;49.102;8.856;2023-05-29T08:49:46;30.40;45.20
6333;DHT22;3199;49.102;8.856;2023-05-29T08:52:18;30.50;45.70
6333;DHT22;3199;49.102;8.856;2023-05-29T08:54:44;30.60;45.00
6333;DHT22;3199;49.102;8.856;2023-05-29T08:57:11;30.50;45.10
6333;DHT22;3199;49.102;8.856;2023-05-29T08:59:37;30.30;45.70
6333;DHT22;3199;49.102;8.856;2023-05-29T09:02:04;30.00;45.60
6333;DHT22;3199;49.102;8.856;2023-05-29T09:04:30;29.80;46.30
6333;DHT22;3199;49.102;8.856;2023-05-29T09:06:59;29.70;46.80
6333;DHT22;3199;49.102;8.856;2023-05-29T09:09:26;29.10;47.00
6333;DHT22;3199;49.102;8.856;2023-05-29T09:11:54;29.00;48.20
6333;DHT22;3199;49.102;8.856;2023-05-29T09:14:42;29.10;47.20
6333;DHT22;3199;49.102;8.856;2023-05-29T09:17:10;29.10;47.30
6333;DHT22;3199;49.102;8.856;2023-05-29T09:19:37;29.00;47.00
6333;DHT22;3199;49.102;8.856;2023-05-29T09:22:11;28.90;46.90
6333;DHT22;3199;49.102;8.856;2023-05-29T09:24:40;28.70;47.20
6333;DHT22;3199;49.102;8.856;2023-05-29T09:27:06;28.60;47.80
6333;DHT22;3199;49.102;8.856;2023-05-29T09:29:40;28.70;47.80
6333;DHT22;3199;49.102;8.856;2023-05-29T09:32:12;28.50;46.80
6333;DHT22;3199;49.102;8.856;2023-05-29T09:34:38;28.30;47.20
6333;DHT22;3199;49.102;8.856;2023-05-29T09:37:07;28.30;48.40
6333;DHT22;3199;49.102;8.856;2023-05-29T09:39:47;28.60;48.20
6333;DHT22;3199;49.102;8.856;2023-05-29T09:42:14;29.10;48.50
6333;DHT22;3199;49.102;8.856;2023-05-29T09:44:41;29.20;46.00
6333;DHT22;3199;49.102;8.856;2023-05-29T09:47:06;28.90;46.30
6333;DHT22;3199;49.102;8.856;2023-05-29T09:49:32;28.70;47.30
6333;DHT22;3199;49.102;8.856;2023-05-29T09:51:58;28.60;46.90
6333;DHT22;3199;49.102;8.856;2023-05-29T09:54:27;28.60;47.50
6333;DHT22;3199;49.102;8.856;2023-05-29T09:56:56;28.70;47.60
6333;DHT22;3199;49.102;8.856;2023-05-29T09:59:24;28.80;46.80
6333;DHT22;3199;49.102;8.856;2023-05-29T10:02:01;28.80;46.60
6333;DHT22;3199;49.102;8.856;2023-05-29T10:04:29;28.80;47.10
6333;DHT22;3199;49.102;8.856;2023-05-29T10:06:56;29.00;47.70
6333;DHT22;3199;49.102;8.856;2023-05-29T10:09:23;29.20;46.50
6333;DHT22;3199;49.102;8.856;2023-05-29T10:11:53;29.50;46.30
6333;DHT22;3199;49.102;8.856;2023-05-29T10:14:25;29.70;45.20
6333;DHT22;3199;49.102;8.856;2023-05-29T10:16:54;29.90;45.40
6333;DHT22;3199;49.102;8.856;2023-05-29T10:19:25;29.90;44.70
6333;DHT22;3199;49.102;8.856;2023-05-29T10:21:53;29.80;45.80
6333;DHT22;3199;49.102;8.856;2023-05-29T10:24:19;29.80;44.30
6333;DHT22;3199;49.102;8.856;2023-05-29T10:26:49;29.70;44.30
6333;DHT22;3199;49.102;8.856;2023-05-29T10:32:23;29.10;46.00
6333;DHT22;3199;49.102;8.856;2023-05-29T10:37:46;28.80;45.80
6333;DHT22;3199;49.102;8.856;2023-05-29T10:40:12;28.70;46.20
6333;DHT22;3199;49.102;8.856;2023-05-29T10:42:46;28.80;46.10
6333;DHT22;3199;49.102;8.856;2023-05-29T10:50:43;29.10;44.90
6333;DHT22;3199;49.102;8.856;2023-05-29T10:53:14;29.00;45.30
6333;DHT22;3199;49.102;8.856;2023-05-29T10:55:41;29.00;44.50
6333;DHT22;3199;49.102;8.856;2023-05-29T10:58:14;29.00;44.90
6333;DHT22;3199;49.102;8.856;2023-05-29T11:00:40;28.80;43.80
6333;DHT22;3199;49.102;8.856;2023-05-29T11:03:07;28.60;44.50
6333;DHT22;3199;49.102;8.856;2023-05-29T11:05:33;28.50;44.60
6333;DHT22;3199;49.102;8.856;2023-05-29T11:08:01;28.40;45.10
6333;DHT22;3199;49.102;8.856;2023-05-29T11:10:44;28.30;44.40
6333;DHT22;3199;49.102;8.856;2023-05-29T11:13:10;28.10;44.50
6333;DHT22;3199;49.102;8.856;2023-05-29T11:15:36;27.90;44.80
6333;DHT22;3199;49.102;8.856;2023-05-29T11:18:07;27.90;44.80
6333;DHT22;3199;49.102;8.856;2023-05-29T11:20:37;28.00;45.10
6333;DHT22;3199;49.102;8.856;2023-05-29T11:23:07;28.10;44.30
6333;DHT22;3199;49.102;8.856;2023-05-29T11:25:37;28.20;43.80
6333;DHT22;3199;49.102;8.856;2023-05-29T11:28:05;28.20;43.20
6333;DHT22;3199;49.102;8.856;2023-05-29T11:30:46;28.20;43.90
6333;DHT22;3199;49.102;8.856;2023-05-29T11:33:20;28.40;42.70
6333;DHT22;3199;49.102;8.856;2023-05-29T11:35:57;28.30;43.20
6333;DHT22;3199;49.102;8.856;2023-05-29T11:38:24;28.30;42.80
6333;DHT22;3199;49.102;8.856;2023-05-29T11:40:50;28.50;41.40
6333;DHT22;3199;49.102;8.856;2023-05-29T11:43:17;28.40;41.90
6333;DHT22;3199;49.102;8.856;2023-05-29T11:45:42;28.30;42.00
6333;DHT22;3199;49.102;8.856;2023-05-29T11:48:08;28.10;41.10
6333;DHT22;3199;49.102;8.856;2023-05-29T11:50:33;28.30;41.30
6333;DHT22;3199;49.102;8.856;2023-05-29T11:53:01;28.40;42.00
6333;DHT22;3199;49.102;8.856;2023-05-29T11:55:27;28.40;41.30
6333;DHT22;3199;49.102;8.856;2023-05-29T11:57:57;28.60;41.30
6333;DHT22;3199;49.102;8.856;2023-05-29T12:00:24;28.60;41.10
6333;DHT22;3199;49.102;8.856;2023-05-29T12:02:51;28.60;41.50
6333;DHT22;3199;49.102;8.856;2023-05-29T12:05:17;28.70;40.60
6333;DHT22;3199;49.102;8.856;2023-05-29T12:07:55;28.60;41.00
6333;DHT22;3199;49.102;8.856;2023-05-29T12:10:27;28.60;41.20
6333;DHT22;3199;49.102;8.856;2023-05-29T12:12:57;28.50;41.30
6333;DHT22;3199;49.102;8.856;2023-05-29T12:15:24;28.50;41.60
6333;DHT22;3199;49.102;8.856;2023-05-29T12:17:50;28.60;41.10
6333;DHT22;3199;49.102;8.856;2023-05-29T12:20:17;28.60;41.30
6333;DHT22;3199;49.102;8.856;2023-05-29T12:22:44;28.60;41.90
6333;DHT22;3199;49.102;8.856;2023-05-29T12:25:11;28.60;42.00
6333;DHT22;3199;49.102;8.856;2023-05-29T12:27:42;28.60;42.10
6333;DHT22;3199;49.102;8.856;2023-05-29T12:32:38;28.60;42.00
6333;DHT22;3199;49.102;8.856;2023-05-29T12:37:35;28.70;42.00
6333;DHT22;3199;49.102;8.856;2023-05-29T12:40:18;28.40;41.70
6333;DHT22;3199;49.102;8.856;2023-05-29T12:42:44;28.40;42.30
6333;DHT22;3199;49.102;8.856;2023-05-29T12:45:10;28.40;41.90
6333;DHT22;3199;49.102;8.856;2023-05-29T12:47:36;28.50;42.20
6333;DHT22;3199;49.102;8.856;2023-05-29T12:50:19;28.30;41.90
6333;DHT22;3199;49.102;8.856;2023-05-29T12:52:46;28.10;42.50
6333;DHT22;3199;49.102;8.856;2023-05-29T12:55:11;28.10;43.10
6333;DHT22;3199;49.102;8.856;2023-05-29T12:57:37;28.20;43.10
6333;DHT22;3199;49.102;8.856;2023-05-29T13:00:03;28.10;43.10
6333;DHT22;3199;49.102;8.856;2023-05-29T13:02:29;28.10;43.00
6333;DHT22;3199;49.102;8.856;2023-05-29T13:04:55;28.20;43.10
6333;DHT22;3199;49.102;8.856;2023-05-29T13:07:20;28.30;43.20
6333;DHT22;3199;49.102;8.856;2023-05-29T13:09:46;28.30;42.50
6333;DHT22;3199;49.102;8.856;2023-05-29T13:12:12;28.20;42.40
6333;DHT22;3199;49.102;8.856;2023-05-29T13:14:37;28.30;43.00
6333;DHT22;3199;49.102;8.856;2023-05-29T13:17:05;28.30;42.90
6333;DHT22;3199;49.102;8.856;2023-05-29T13:19:30;28.20;42.40
6333;DHT22;3199;49.102;8.856;2023-05-29T13:21:56;28.10;42.20
6333;DHT22;3199;49.102;8.856;2023-05-29T13:24:21;28.10;42.30
6333;DHT22;3199;49.102;8.856;2023-05-29T13:26:47;27.80;43.50
6333;DHT22;3199;49.102;8.856;2023-05-29T13:29:13;27.80;43.60
6333;DHT22;3199;49.102;8.856;2023-05-29T13:31:38;27.80;43.90
6333;DHT22;3199;49.102;8.856;2023-05-29T13:34:04;28.00;43.60
6333;DHT22;3199;49.102;8.856;2023-05-29T13:36:30;28.00;43.00
6333;DHT22;3199;49.102;8.856;2023-05-29T13:38:56;27.90;43.00
6333;DHT22;3199;49.102;8.856;2023-05-29T13:41:22;27.60;42.90
6333;DHT22;3199;49.102;8.856;2023-05-29T13:43:47;27.60;44.30
6333;DHT22;3199;49.102;8.856;2023-05-29T13:46:13;27.60;43.60
6333;DHT22;3199;49.102;8.856;2023-05-29T13:48:38;27.50;43.30
6333;DHT22;3199;49.102;8.856;2023-05-29T13:51:04;27.40;43.80
6333;DHT22;3199;49.102;8.856;2023-05-29T13:53:29;27.40;43.50
6333;DHT22;3199;49.102;8.856;2023-05-29T13:55:55;27.40;43.50
6333;DHT22;3199;49.102;8.856;2023-05-29T13:58:20;27.40;43.30
6333;DHT22;3199;49.102;8.856;2023-05-29T14:00:46;27.50;43.10
6333;DHT22;3199;49.102;8.856;2023-05-29T14:03:12;27.60;42.90
6333;DHT22;3199;49.102;8.856;2023-05-29T14:05:37;27.60;43.90
6333;DHT22;3199;49.102;8.856;2023-05-29T14:08:03;27.60;42.80
6333;DHT22;3199;49.102;8.856;2023-05-29T14:10:29;27.50;42.40
6333;DHT22;3199;49.102;8.856;2023-05-29T14:12:54;27.50;42.20
6333;DHT22;3199;49.102;8.856;2023-05-29T14:15:20;27.40;42.80
6333;DHT22;3199;49.102;8.856;2023-05-29T14:17:46;27.50;42.90
6333;DHT22;3199;49.102;8.856;2023-05-29T14:20:11;27.50;43.30
6333;DHT22;3199;49.102;8.856;2023-05-29T14:22:37;27.60;43.10
6333;DHT22;3199;49.102;8.856;2023-05-29T14:25:03;27.70;42.30
6333;DHT22;3199;49.102;8.856;2023-05-29T14:27:29;27.60;41.60
6333;DHT22;3199;49.102;8.856;2023-05-29T14:29:55;27.60;41.60
6333;DHT22;3199;49.102;8.856;2023-05-29T14:32:21;27.50;41.40
6333;DHT22;3199;49.102;8.856;2023-05-29T14:34:46;27.60;41.80
6333;DHT22;3199;49.102;8.856;2023-05-29T14:37:12;27.70;42.40
6333;DHT22;3199;49.102;8.856;2023-05-29T14:39:37;27.70;42.80
6333;DHT22;3199;49.102;8.856;2023-05-29T14:42:03;27.70;42.90
6333;DHT22;3199;49.102;8.856;2023-05-29T14:44:28;27.70;42.80
6333;DHT22;3199;49.102;8.856;2023-05-29T14:46:54;27.60;42.30
6333;DHT22;3199;49.102;8.856;2023-05-29T14:49:20;27.60;42.00
6333;DHT22;3199;49.102;8.856;2023-05-29T14:51:46;27.50;41.80
6333;DHT22;3199;49.102;8.856;2023-05-29T14:54:12;27.50;41.90
6333;DHT22;3199;49.102;8.856;2023-05-29T14:56:37;27.40;41.60
6333;DHT22;3199;49.102;8.856;2023-05-29T14:59:03;27.30;42.20
6333;DHT22;3199;49.102;8.856;2023-05-29T15:01:28;27.30;42.20
6333;DHT22;3199;49.102;8.856;2023-05-29T15:03:54;27.30;42.60
6333;DHT22;3199;49.102;8.856;2023-05-29T15:06:19;27.30;42.70
6333;DHT22;3199;49.102;8.856;2023-05-29T15:08:45;27.30;42.60
6333;DHT22;3199;49.102;8.856;2023-05-29T15:11:11;27.20;42.50
6333;DHT22;3199;49.102;8.856;2023-05-29T15:13:40;27.20;42.50
6333;DHT22;3199;49.102;8.856;2023-05-29T15:16:06;27.20;42.00
6333;DHT22;3199;49.102;8.856;2023-05-29T15:18:33;27.10;42.50
6333;DHT22;3199;49.102;8.856;2023-05-29T15:20:58;27.10;42.00
6333;DHT22;3199;49.102;8.856;2023-05-29T15:23:25;27.00;42.40
6333;DHT22;3199;49.102;8.856;2023-05-29T15:25:50;27.00;42.00
6333;DHT22;3199;49.102;8.856;2023-05-29T15:28:16;27.00;42.40
6333;DHT22;3199;49.102;8.856;2023-05-29T15:30:44;27.10;42.60
6333;DHT22;3199;49.102;8.856;2023-05-29T15:33:09;27.00;42.40
6333;DHT22;3199;49.102;8.856;2023-05-29T15:35:39;27.00;42.40
6333;DHT22;3199;49.102;8.856;2023-05-29T15:38:06;26.90;42.90
6333;DHT22;3199;49.102;8.856;2023-05-29T15:40:31;26.90;43.10
6333;DHT22;3199;49.102;8.856;2023-05-29T15:42:57;26.90;43.10
6333;DHT22;3199;49.102;8.856;2023-05-29T15:45:23;26.90;42.70
6333;DHT22;3199;49.102;8.856;2023-05-29T15:47:49;26.80;42.60
6333;DHT22;3199;49.102;8.856;2023-05-29T15:50:15;26.80;42.40
6333;DHT22;3199;49.102;8.856;2023-05-29T15:52:41;26.70;42.70
6333;DHT22;3199;49.102;8.856;2023-05-29T15:55:07;26.60;43.10
6333;DHT22;3199;49.102;8.856;2023-05-29T15:57:33;26.60;44.10
6333;DHT22;3199;49.102;8.856;2023-05-29T15:59:58;26.70;44.40
6333;DHT22;3199;49.102;8.856;2023-05-29T16:02:24;26.70;43.80
6333;DHT22;3199;49.102;8.856;2023-05-29T16:04:49;26.70;42.90
6333;DHT22;3199;49.102;8.856;2023-05-29T16:07:15;26.60;42.60
6333;DHT22;3199;49.102;8.856;2023-05-29T16:09:40;26.60;43.30
6333;DHT22;3199;49.102;8.856;2023-05-29T16:12:08;26.50;43.30
6333;DHT22;3199;49.102;8.856;2023-05-29T16:14:35;26.50;43.20
6333;DHT22;3199;49.102;8.856;2023-05-29T16:17:00;26.50;43.90
6333;DHT22;3199;49.102;8.856;2023-05-29T16:19:26;26.40;43.90
6333;DHT22;3199;49.102;8.856;2023-05-29T16:21:53;26.40;43.90
6333;DHT22;3199;49.102;8.856;2023-05-29T16:24:18;26.30;43.80
6333;DHT22;3199;49.102;8.856;2023-05-29T16:26:44;26.30;43.40